Time;durP1;ratioP1;P1;durP2;ratioP2;P2;SDS_P1;SDS_P2;PMS_P1;PMS_P2;Temp;Humidity;BMP_temperature;BMP_pressure;BME280_temperature;BME280_humidity;BME280_pressure;Samples;Min_cycle;Max_cycle;Signal;HPM_P1;HPM_P2
2022/01/09 00:01:47;;;;;;;8.75;5.10;;;;;;;1.01;53.45;100535.98;1736662;82;21168;-71
2022/01/09 00:04:13;;;;;;;8.03;4.90;;;;;;;1.03;53.43;100534.78;1736869;82;21564;-71
2022/01/09 00:06:40;;;;;;;8.58;4.87;;;;;;;1.03;53.43;100532.16;1734748;82;21073;-72
2022/01/09 00:09:09;;;;;;;9.15;4.62;;;;;;;1.03;53.52;100530.03;1730862;82;20995;-72
2022/01/09 00:11:38;;;;;;;9.65;5.00;;;;;;;1.03;53.54;100527.41;1730887;82;21070;-71
2022/01/09 00:14:04;;;;;;;7.80;4.30;;;;;;;1.03;53.50;100525.58;1731116;83;21053;-71
2022/01/09 00:16:31;;;;;;;9.10;4.50;;;;;;;1.00;53.61;100518.08;1730906;83;20982;-71
2022/01/09 00:18:58;;;;;;;8.05;4.40;;;;;;;1.02;53.69;100519.19;1730867;82;21145;-70
2022/01/09 00:21:24;;;;;;;9.03;5.00;;;;;;;1.04;53.80;100523.25;1731001;83;20998;-71
2022/01/09 00:23:50;;;;;;;9.35;5.05;;;;;;;1.06;53.78;100517.81;1730808;82;20983;-71
2022/01/09 00:26:17;;;;;;;9.20;4.97;;;;;;;1.09;53.78;100516.11;1730936;83;21058;-72
2022/01/09 00:28:43;;;;;;;9.03;5.05;;;;;;;1.09;53.77;100514.80;1731176;82;21002;-71
2022/01/09 00:31:10;;;;;;;9.03;5.10;;;;;;;1.08;53.76;100515.27;1730826;83;21466;-71
2022/01/09 00:33:36;;;;;;;9.63;4.33;;;;;;;1.10;53.68;100502.75;1730957;82;20967;-71
2022/01/09 00:36:03;;;;;;;10.98;5.45;;;;;;;1.05;53.79;100495.13;1730887;83;20999;-71
2022/01/09 00:38:29;;;;;;;9.13;5.00;;;;;;;1.02;53.83;100498.98;1731218;82;21082;-71
2022/01/09 00:40:55;;;;;;;9.65;5.00;;;;;;;1.00;53.82;100494.41;1730687;83;21049;-71
2022/01/09 00:43:22;;;;;;;9.40;4.53;;;;;;;0.96;53.90;100495.81;1731353;82;21029;-71
2022/01/09 00:45:48;;;;;;;8.70;4.53;;;;;;;0.93;53.98;100487.00;1730907;83;20954;-70
2022/01/09 00:48:14;;;;;;;10.70;5.75;;;;;;;0.91;53.98;100477.16;1731170;82;21010;-70
2022/01/09 00:50:42;;;;;;;11.10;5.50;;;;;;;0.89;53.96;100479.20;1730336;82;21033;-70
2022/01/09 00:53:08;;;;;;;10.25;5.33;;;;;;;0.87;54.01;100476.75;1731204;82;21014;-70
2022/01/09 00:55:36;;;;;;;9.60;4.80;;;;;;;0.91;54.05;100474.53;1730905;83;21634;-71
2022/01/09 00:58:03;;;;;;;9.03;4.85;;;;;;;0.94;53.94;100473.64;1731269;82;21451;-71
2022/01/09 01:00:30;;;;;;;10.82;5.80;;;;;;;0.92;54.02;100469.58;1730460;82;21580;-71
2022/01/09 01:02:57;;;;;;;9.95;5.50;;;;;;;0.96;54.05;100472.14;1731246;82;21612;-70
2022/01/09 01:05:26;;;;;;;10.88;4.97;;;;;;;0.97;54.08;100464.55;1724006;82;21655;-72
2022/01/09 01:07:53;;;;;;;10.78;5.10;;;;;;;1.03;54.07;100469.03;1731038;82;21092;-70
2022/01/09 01:10:29;;;;;;;10.65;6.03;;;;;;;1.02;54.06;100456.90;1730688;83;21067;-71
2022/01/09 01:12:56;;;;;;;9.83;5.15;;;;;;;1.03;54.03;100455.88;1730763;82;21054;-71
2022/01/09 01:15:30;;;;;;;11.38;6.15;;;;;;;1.04;54.05;100460.13;1730826;83;21117;-70
2022/01/09 01:18:10;;;;;;;11.00;5.95;;;;;;;1.00;54.13;100458.09;1729411;81;21089;-70
2022/01/09 01:20:36;;;;;;;10.32;5.05;;;;;;;1.02;54.29;100451.64;1726465;81;21553;-70
2022/01/09 01:23:03;;;;;;;12.28;5.65;;;;;;;1.02;54.48;100452.95;1730721;83;21014;-70
2022/01/09 01:25:30;;;;;;;12.68;5.53;;;;;;;1.03;54.69;100445.36;1735495;82;21006;-71
2022/01/09 01:27:57;;;;;;;13.38;5.75;;;;;;;1.04;54.87;100445.66;1736530;82;21048;-71
2022/01/09 01:30:23;;;;;;;12.30;5.58;;;;;;;1.01;55.21;100440.79;1745477;81;21058;-71
2022/01/09 01:32:50;;;;;;;13.62;6.05;;;;;;;0.91;55.56;100439.84;1761178;81;21092;-70
2022/01/09 01:35:16;;;;;;;11.78;6.25;;;;;;;0.88;55.90;100427.59;1760896;81;21081;-71
2022/01/09 01:37:43;;;;;;;10.68;5.42;;;;;;;0.86;56.25;100423.05;1761217;81;21498;-70
2022/01/09 01:40:16;;;;;;;10.75;4.92;;;;;;;0.82;56.52;100413.41;1761031;81;21112;-70
2022/01/09 01:42:45;;;;;;;9.23;5.60;;;;;;;0.78;56.85;100408.75;1761341;81;21517;-70
2022/01/09 01:45:12;;;;;;;12.05;6.25;;;;;;;0.73;57.18;100407.23;1761081;81;21139;-70
2022/01/09 01:47:38;;;;;;;11.57;5.80;;;;;;;0.65;57.60;100402.41;1761130;81;21050;-71
2022/01/09 01:50:07;;;;;;;9.90;5.50;;;;;;;0.63;57.88;100403.64;1761272;80;21597;-70
2022/01/09 01:52:38;;;;;;;12.40;6.25;;;;;;;0.60;58.30;100404.03;1761203;80;21015;-71
2022/01/09 01:55:05;;;;;;;13.45;6.17;;;;;;;0.48;58.75;100402.44;1760528;81;21113;-71
2022/01/09 01:57:33;;;;;;;12.05;6.20;;;;;;;0.43;59.20;100398.29;1761125;81;21124;-71
2022/01/09 02:00:00;;;;;;;11.08;6.60;;;;;;;0.35;59.94;100387.41;1761015;81;21132;-71
2022/01/09 02:02:26;;;;;;;13.22;6.90;;;;;;;0.27;60.41;100390.72;1761041;81;20966;-70
2022/01/09 02:04:53;;;;;;;10.98;5.78;;;;;;;0.22;60.76;100384.20;1761131;81;21019;-70
2022/01/09 02:07:19;;;;;;;12.55;6.15;;;;;;;0.26;61.12;100378.06;1761153;81;20963;-71
2022/01/09 02:09:46;;;;;;;12.28;6.03;;;;;;;0.25;61.31;100373.83;1761146;81;21507;-70
2022/01/09 02:12:14;;;;;;;12.73;7.10;;;;;;;0.24;61.58;100368.27;1751330;81;21063;-70
2022/01/09 02:14:45;;;;;;;11.85;6.40;;;;;;;0.14;61.94;100359.94;1729145;83;21007;-70
2022/01/09 02:17:09;;;;;;;11.78;6.58;;;;;;;0.08;62.36;100365.45;1728841;83;21066;-71
2022/01/09 02:19:36;;;;;;;12.15;5.72;;;;;;;0.07;62.84;100353.33;1729314;83;21470;-71
2022/01/09 02:22:06;;;;;;;9.65;5.70;;;;;;;0.06;63.12;100352.19;1729362;83;20936;-70
2022/01/09 02:24:33;;;;;;;12.07;6.78;;;;;;;-0.01;63.55;100348.21;1729038;83;21447;-70
2022/01/09 02:27:04;;;;;;;13.22;7.03;;;;;;;-0.05;63.84;100343.05;1729207;83;21074;-71
2022/01/09 02:29:31;;;;;;;14.23;6.28;;;;;;;-0.08;64.20;100344.23;1729747;83;21515;-71
2022/01/09 02:31:58;;;;;;;11.25;6.15;;;;;;;-0.11;64.61;100332.00;1729344;83;21494;-71
2022/01/09 02:34:24;;;;;;;15.50;7.28;;;;;;;-0.18;64.97;100333.77;1729306;82;22141;-71
2022/01/09 02:36:51;;;;;;;12.03;6.12;;;;;;;-0.23;65.24;100335.67;1729375;83;21568;-70
2022/01/09 02:39:18;;;;;;;13.35;6.95;;;;;;;-0.25;65.55;100325.34;1729308;83;21526;-71
2022/01/09 02:41:44;;;;;;;10.45;6.47;;;;;;;-0.23;65.79;100325.17;1729149;83;21617;-71
2022/01/09 02:44:11;;;;;;;12.85;6.53;;;;;;;-0.20;65.99;100324.77;1729430;82;21067;-70
2022/01/09 02:46:59;;;;;;;13.78;7.40;;;;;;;-0.21;66.12;100321.03;1729179;83;21500;-71
2022/01/09 02:49:11;;;;;;;11.75;6.35;;;;;;;-0.22;66.24;100320.73;1724364;83;21068;-71
2022/01/09 02:51:40;;;;;;;13.13;6.92;;;;;;;-0.24;66.46;100315.15;1729313;83;21708;-70
2022/01/09 02:55:06;;;;;;;12.82;6.85;;;;;;;-0.26;66.53;100311.12;1728608;81;21074;-71
2022/01/09 02:56:41;;;;;;;10.55;6.15;;;;;;;-0.26;66.72;100304.56;1723011;83;21205;-71
2022/01/09 02:59:07;;;;;;;12.58;6.45;;;;;;;-0.30;66.93;100296.73;1730859;83;21526;-71
2022/01/09 03:01:34;;;;;;;12.70;7.17;;;;;;;-0.32;67.14;100297.45;1730707;83;21442;-71
2022/01/09 03:04:00;;;;;;;14.95;7.55;;;;;;;-0.33;67.28;100291.87;1730864;83;21534;-70
2022/01/09 03:06:26;;;;;;;14.50;7.70;;;;;;;-0.33;67.42;100292.70;1731108;82;21505;-71
2022/01/09 03:08:54;;;;;;;12.07;6.62;;;;;;;-0.31;67.56;100289.37;1730932;82;21665;-70
2022/01/09 03:11:23;;;;;;;11.05;6.62;;;;;;;-0.29;67.76;100277.38;1746977;81;20994;-70
2022/01/09 03:13:49;;;;;;;13.50;7.40;;;;;;;-0.33;67.88;100282.20;1760985;81;20999;-70
2022/01/09 03:16:16;;;;;;;12.45;6.80;;;;;;;-0.39;68.11;100277.72;1761297;81;21105;-70
2022/01/09 03:18:42;;;;;;;13.38;7.15;;;;;;;-0.44;68.37;100278.78;1761360;81;21010;-70
2022/01/09 03:21:09;;;;;;;13.35;7.10;;;;;;;-0.49;68.69;100274.13;1761029;80;21050;-69
2022/01/09 03:23:35;;;;;;;12.45;7.20;;;;;;;-0.52;68.87;100265.83;1761226;81;21670;-69
2022/01/09 03:26:02;;;;;;;13.80;6.87;;;;;;;-0.52;68.96;100258.77;1761061;81;21535;-69
2022/01/09 03:28:29;;;;;;;14.98;7.85;;;;;;;-0.51;69.06;100260.38;1761320;81;21065;-70
2022/01/09 03:30:56;;;;;;;14.55;7.62;;;;;;;-0.53;69.15;100260.25;1743993;81;21560;-70
2022/01/09 03:33:22;;;;;;;15.18;7.62;;;;;;;-0.53;69.29;100263.71;1731466;82;21553;-70
2022/01/09 03:35:48;;;;;;;12.68;7.42;;;;;;;-0.53;69.38;100260.25;1730405;82;22182;-70
2022/01/09 03:38:15;;;;;;;13.48;7.90;;;;;;;-0.51;69.42;100264.81;1731178;82;21532;-70
2022/01/09 03:40:41;;;;;;;15.45;7.33;;;;;;;-0.49;69.53;100260.20;1730760;82;20987;-70
2022/01/09 03:43:09;;;;;;;12.78;7.15;;;;;;;-0.51;69.55;100255.13;1727410;83;21109;-70
2022/01/09 03:45:35;;;;;;;14.38;6.75;;;;;;;-0.45;69.64;100251.44;1731018;83;21042;-71
2022/01/09 03:48:02;;;;;;;12.88;7.33;;;;;;;-0.43;69.66;100255.47;1730272;80;21112;-70
2022/01/09 03:50:32;;;;;;;14.58;7.08;;;;;;;-0.43;69.62;100248.91;1729276;83;21570;-72
2022/01/09 03:52:59;;;;;;;15.05;7.12;;;;;;;-0.44;69.68;100248.61;1709920;83;21035;-70
2022/01/09 03:55:26;;;;;;;12.93;6.87;;;;;;;-0.48;69.74;100244.76;1701840;82;21074;-70
2022/01/09 03:57:53;;;;;;;13.65;7.17;;;;;;;-0.48;69.78;100252.12;1699582;83;21112;-71
2022/01/09 04:00:22;;;;;;;12.07;6.85;;;;;;;-0.48;69.82;100242.94;1730878;83;21094;-70
2022/01/09 04:02:50;;;;;;;12.88;6.80;;;;;;;-0.49;69.92;100239.21;1731033;82;21048;-72
2022/01/09 04:05:17;;;;;;;14.65;7.25;;;;;;;-0.53;70.01;100235.33;1730370;82;21026;-71
2022/01/09 04:07:44;;;;;;;12.63;6.80;;;;;;;-0.57;70.13;100234.91;1730746;83;21066;-70
2022/01/09 04:10:11;;;;;;;13.15;7.30;;;;;;;-0.58;70.27;100229.86;1730675;82;21097;-71
2022/01/09 04:12:47;;;;;;;10.58;6.40;;;;;;;-0.57;70.34;100228.85;1731012;82;21209;-70
2022/01/09 04:15:08;;;;;;;11.63;6.22;;;;;;;-0.55;70.42;100234.73;1700467;83;21031;-71
2022/01/09 04:17:55;;;;;;;14.65;7.03;;;;;;;-0.58;70.52;100225.92;1730988;82;21509;-71
2022/01/09 04:20:24;;;;;;;13.40;6.40;;;;;;;-0.60;70.67;100222.67;1730516;83;21083;-70
2022/01/09 04:22:51;;;;;;;15.43;7.53;;;;;;;-0.58;70.76;100221.99;1731157;82;21054;-70
2022/01/09 04:25:18;;;;;;;14.15;7.35;;;;;;;-0.58;70.79;100219.38;1730747;83;21126;-71
2022/01/09 04:27:46;;;;;;;14.43;7.45;;;;;;;-0.53;70.85;100225.67;1731259;82;21026;-70
2022/01/09 04:30:13;;;;;;;12.13;6.35;;;;;;;-0.50;70.86;100215.27;1730932;82;21545;-71
2022/01/09 04:32:40;;;;;;;13.08;6.25;;;;;;;-0.47;70.87;100212.27;1731125;82;21660;-70
2022/01/09 04:35:08;;;;;;;12.95;6.62;;;;;;;-0.47;70.86;100205.70;1723909;83;21632;-70
2022/01/09 04:37:40;;;;;;;12.20;6.85;;;;;;;-0.51;70.92;100205.79;1730996;83;21088;-70
2022/01/09 04:40:13;;;;;;;12.60;6.67;;;;;;;-0.52;70.98;100202.87;1730587;82;21105;-71
2022/01/09 04:42:52;;;;;;;13.20;6.40;;;;;;;-0.51;71.03;100196.10;1730673;83;21042;-70
2022/01/09 04:45:14;;;;;;;11.30;6.50;;;;;;;-0.50;71.04;100194.28;1729724;82;21090;-70
2022/01/09 04:47:45;;;;;;;12.37;6.35;;;;;;;-0.49;71.04;100187.55;1730940;83;21935;-70
2022/01/09 04:50:16;;;;;;;12.75;7.30;;;;;;;-0.50;71.11;100182.48;1726598;81;21798;-70
2022/01/09 04:52:41;;;;;;;11.83;6.80;;;;;;;-0.47;71.14;100189.45;1725063;82;21017;-70
2022/01/09 04:55:08;;;;;;;13.83;7.00;;;;;;;-0.49;71.20;100181.50;1730116;82;21078;-70
2022/01/09 04:57:35;;;;;;;12.37;7.08;;;;;;;-0.49;71.22;100173.63;1714252;82;21050;-70
2022/01/09 05:00:05;;;;;;;14.85;7.60;;;;;;;-0.49;71.26;100173.12;1731082;83;21615;-70
2022/01/09 05:02:33;;;;;;;13.72;7.20;;;;;;;-0.48;71.29;100168.67;1730939;83;21141;-70
2022/01/09 05:05:00;;;;;;;12.33;7.15;;;;;;;-0.47;71.26;100170.28;1730613;83;21027;-70
2022/01/09 05:07:26;;;;;;;15.15;8.08;;;;;;;-0.47;71.34;100167.16;1730869;83;21050;-70
2022/01/09 05:09:54;;;;;;;14.10;8.00;;;;;;;-0.50;71.36;100167.55;1730788;83;21022;-70
2022/01/09 05:12:21;;;;;;;14.45;8.18;;;;;;;-0.51;71.46;100163.31;1730981;83;20966;-70
2022/01/09 05:14:47;;;;;;;16.27;7.90;;;;;;;-0.50;71.46;100157.05;1730808;82;21845;-71
2022/01/09 05:17:13;;;;;;;14.55;8.15;;;;;;;-0.50;71.50;100156.24;1730706;82;21530;-70
2022/01/09 05:19:41;;;;;;;15.18;8.43;;;;;;;-0.51;71.51;100158.56;1731053;83;21066;-69
2022/01/09 05:22:08;;;;;;;15.40;9.00;;;;;;;-0.50;71.58;100153.62;1730620;82;21034;-70
2022/01/09 05:24:36;;;;;;;15.63;8.68;;;;;;;-0.46;71.57;100153.56;1731135;83;21609;-70
2022/01/09 05:27:03;;;;;;;15.20;9.75;;;;;;;-0.45;71.62;100149.92;1730823;83;21581;-70
2022/01/09 05:29:29;;;;;;;13.32;8.40;;;;;;;-0.45;71.62;100148.61;1731197;82;21034;-70
2022/01/09 05:31:55;;;;;;;17.62;9.68;;;;;;;-0.44;71.64;100154.66;1730852;83;21276;-70
2022/01/09 05:34:22;;;;;;;16.77;9.18;;;;;;;-0.42;71.67;100153.47;1731368;82;20982;-71
2022/01/09 05:36:48;;;;;;;16.90;9.45;;;;;;;-0.38;71.70;100152.07;1730831;83;21150;-70
2022/01/09 05:39:15;;;;;;;14.83;9.25;;;;;;;-0.36;71.65;100155.33;1731011;83;21137;-71
2022/01/09 05:41:43;;;;;;;14.03;8.68;;;;;;;-0.35;71.66;100153.00;1730763;82;21133;-70
2022/01/09 05:44:09;;;;;;;15.32;9.10;;;;;;;-0.34;71.68;100148.55;1730382;82;21019;-70
2022/01/09 05:46:36;;;;;;;14.65;8.45;;;;;;;-0.35;71.72;100138.56;1729201;83;21019;-71
2022/01/09 05:49:02;;;;;;;15.38;9.00;;;;;;;-0.35;71.78;100135.94;1729493;83;20967;-70
2022/01/09 05:51:29;;;;;;;16.65;9.63;;;;;;;-0.35;71.84;100137.76;1729312;83;21882;-70
2022/01/09 05:53:55;;;;;;;14.83;9.78;;;;;;;-0.34;71.83;100132.80;1729320;82;21101;-70
2022/01/09 05:56:22;;;;;;;16.02;9.00;;;;;;;-0.32;71.89;100133.43;1730285;83;20995;-70
2022/01/09 05:58:49;;;;;;;17.62;10.25;;;;;;;-0.29;71.92;100129.11;1726762;82;20990;-70
2022/01/09 06:01:15;;;;;;;15.68;9.90;;;;;;;-0.25;71.91;100129.82;1730891;83;21600;-69
2022/01/09 06:03:42;;;;;;;16.40;10.03;;;;;;;-0.19;71.86;100122.17;1730948;82;21487;-70
2022/01/09 06:06:08;;;;;;;13.85;9.18;;;;;;;-0.13;71.79;100119.57;1730867;82;20966;-71
2022/01/09 06:08:35;;;;;;;13.65;9.30;;;;;;;-0.07;71.67;100117.95;1730537;82;21069;-71
2022/01/09 06:11:01;;;;;;;13.35;8.43;;;;;;;-0.08;71.58;100115.83;1730898;83;21061;-70
2022/01/09 06:13:28;;;;;;;15.43;10.30;;;;;;;-0.05;71.55;100106.76;1730890;82;21090;-71
2022/01/09 06:15:54;;;;;;;14.93;9.05;;;;;;;-0.05;71.43;100103.62;1730863;82;21103;-71
2022/01/09 06:18:21;;;;;;;13.65;9.25;;;;;;;-0.02;71.38;100098.48;1730790;82;21066;-71
2022/01/09 06:20:48;;;;;;;15.83;8.90;;;;;;;-0.03;71.30;100101.63;1730767;83;21034;-70
2022/01/09 06:23:20;;;;;;;15.72;10.10;;;;;;;-0.06;71.25;100096.77;1730852;82;21568;-70
2022/01/09 06:25:48;;;;;;;13.30;9.40;;;;;;;-0.07;71.23;100095.13;1730956;82;21592;-71
2022/01/09 06:28:14;;;;;;;17.12;9.93;;;;;;;-0.07;71.26;100093.02;1730846;82;21124;-71
2022/01/09 06:30:41;;;;;;;16.37;9.38;;;;;;;-0.11;71.30;100093.11;1730867;83;20979;-70
2022/01/09 06:33:09;;;;;;;15.23;9.80;;;;;;;-0.10;71.39;100093.41;1730857;83;21066;-70
2022/01/09 06:35:35;;;;;;;18.62;10.10;;;;;;;-0.08;71.41;100086.16;1730891;82;20999;-71
2022/01/09 06:38:02;;;;;;;16.95;9.30;;;;;;;-0.07;71.45;100090.39;1730796;82;21023;-71
2022/01/09 06:40:31;;;;;;;16.10;10.13;;;;;;;-0.05;71.47;100084.45;1730828;83;21128;-70
2022/01/09 06:42:57;;;;;;;16.60;10.60;;;;;;;-0.02;71.45;100089.30;1730639;82;21554;-70
2022/01/09 06:45:24;;;;;;;17.32;9.60;;;;;;;0.02;71.48;100084.45;1730811;83;21565;-70
2022/01/09 06:47:52;;;;;;;17.00;10.15;;;;;;;0.03;71.45;100078.99;1730701;83;21011;-71
2022/01/09 06:50:19;;;;;;;17.82;10.30;;;;;;;0.02;71.46;100077.38;1730796;82;21065;-71
2022/01/09 06:52:46;;;;;;;17.48;10.45;;;;;;;0.02;71.47;100070.82;1730502;82;21127;-70
2022/01/09 06:55:13;;;;;;;17.52;10.53;;;;;;;0.04;71.49;100069.33;1727130;82;21026;-71
2022/01/09 06:57:39;;;;;;;15.53;10.65;;;;;;;0.04;71.51;100072.75;1730856;83;21090;-70
2022/01/09 07:00:07;;;;;;;16.32;9.83;;;;;;;0.04;71.53;100067.50;1730993;82;21074;-70
2022/01/09 07:02:34;;;;;;;17.57;10.82;;;;;;;0.07;71.54;100072.87;1731005;83;21058;-70
2022/01/09 07:05:00;;;;;;;15.20;10.58;;;;;;;0.10;71.52;100071.95;1731128;82;21011;-70
2022/01/09 07:07:27;;;;;;;17.73;11.08;;;;;;;0.10;71.52;100060.14;1730999;83;20970;-70
2022/01/09 07:09:53;;;;;;;18.25;10.65;;;;;;;0.12;71.48;100060.73;1730945;82;21153;-71
2022/01/09 07:12:22;;;;;;;16.15;10.25;;;;;;;0.18;71.48;100062.56;1730868;82;21632;-70
2022/01/09 07:14:48;;;;;;;19.15;10.43;;;;;;;0.23;71.40;100063.26;1730880;83;21107;-71
2022/01/09 07:17:15;;;;;;;18.77;10.65;;;;;;;0.27;71.42;100067.63;1730808;82;21478;-70
2022/01/09 07:19:42;;;;;;;19.32;11.38;;;;;;;0.30;71.37;100064.61;1730677;83;21459;-69
2022/01/09 07:22:08;;;;;;;17.23;10.78;;;;;;;0.33;71.34;100063.70;1730936;83;21556;-70
2022/01/09 07:24:36;;;;;;;18.23;11.12;;;;;;;0.42;71.29;100062.45;1731051;83;21117;-70
2022/01/09 07:27:03;;;;;;;17.73;9.88;;;;;;;0.47;71.17;100056.61;1730901;82;20971;-70
2022/01/09 07:29:31;;;;;;;21.10;11.18;;;;;;;0.50;71.00;100048.33;1730979;83;21516;-70
2022/01/09 07:31:57;;;;;;;16.93;10.75;;;;;;;0.47;70.82;100044.79;1730804;82;21046;-71
2022/01/09 07:34:24;;;;;;;19.62;10.88;;;;;;;0.47;70.76;100039.53;1731097;82;20971;-70
2022/01/09 07:36:50;;;;;;;17.30;10.15;;;;;;;0.48;70.71;100038.52;1730855;83;21073;-69
2022/01/09 07:39:17;;;;;;;16.75;10.28;;;;;;;0.52;70.69;100029.72;1730680;82;21058;-71
2022/01/09 07:41:44;;;;;;;16.23;10.63;;;;;;;0.57;70.58;100026.79;1730856;83;21135;-71
2022/01/09 07:44:11;;;;;;;15.30;9.13;;;;;;;0.63;70.49;100027.29;1730953;82;21042;-70
2022/01/09 07:46:38;;;;;;;15.88;10.30;;;;;;;0.65;70.37;100027.07;1730687;83;21120;-71
2022/01/09 07:49:05;;;;;;;17.42;10.20;;;;;;;0.67;70.38;100026.38;1730814;83;20959;-70
2022/01/09 07:51:33;;;;;;;16.27;10.13;;;;;;;0.76;70.39;100021.20;1731062;83;21094;-71
2022/01/09 07:54:01;;;;;;;15.18;9.55;;;;;;;0.85;70.24;100022.57;1730868;83;21431;-70
2022/01/09 07:56:28;;;;;;;15.30;9.18;;;;;;;0.91;70.15;100021.75;1731246;82;21042;-70
2022/01/09 07:58:55;;;;;;;13.98;9.38;;;;;;;0.96;69.86;100020.34;1731014;83;21462;-70
2022/01/09 08:01:29;;;;;;;14.98;8.70;;;;;;;0.93;69.74;100018.42;1730809;83;21477;-70
2022/01/09 08:03:56;;;;;;;16.30;9.65;;;;;;;0.98;69.76;100014.36;1724230;82;21105;-70
2022/01/09 08:06:26;;;;;;;14.85;9.30;;;;;;;1.01;69.52;100002.91;1730979;83;21121;-70
2022/01/09 08:08:57;;;;;;;15.10;9.68;;;;;;;1.03;69.43;99993.00;1730770;83;21007;-70
2022/01/09 08:11:27;;;;;;;16.65;10.43;;;;;;;1.04;69.32;99998.55;1730801;82;21133;-70
2022/01/09 08:13:55;;;;;;;15.50;10.13;;;;;;;1.08;69.36;99998.43;1730718;83;21771;-70
2022/01/09 08:16:24;;;;;;;16.55;9.90;;;;;;;1.16;69.35;99996.89;1730882;83;20999;-70
2022/01/09 08:18:55;;;;;;;16.48;10.20;;;;;;;1.31;69.27;99999.25;1731003;83;21946;-70
2022/01/09 08:21:25;;;;;;;14.03;9.10;;;;;;;1.38;68.93;99993.47;1730989;83;20975;-71
2022/01/09 08:24:06;;;;;;;16.67;10.03;;;;;;;1.47;68.75;99986.63;1724970;82;21088;-71
2022/01/09 08:26:41;;;;;;;15.38;8.63;;;;;;;1.52;68.43;99984.19;1730927;83;20994;-71
2022/01/09 08:29:09;;;;;;;15.85;9.88;;;;;;;1.53;68.13;99981.33;1730991;82;21066;-69
2022/01/09 08:31:43;;;;;;;16.35;10.13;;;;;;;1.51;67.94;99981.23;1730866;83;21110;-70
2022/01/09 08:34:17;;;;;;;15.40;9.95;;;;;;;1.53;67.89;99970.00;1730875;83;22314;-69
2022/01/09 08:36:44;;;;;;;;;;;;;;;1.57;67.77;99965.91;1733453;83;20982;-70
2022/01/09 08:39:13;;;;;;;15.05;9.08;;;;;;;1.59;67.69;99957.30;1730984;81;20760;-69
2022/01/09 08:41:40;;;;;;;15.45;10.18;;;;;;;1.64;67.65;99963.53;1730819;83;21230;-70
2022/01/09 08:44:07;;;;;;;14.65;9.48;;;;;;;1.67;67.46;99960.98;1731077;81;21482;-71
2022/01/09 08:46:42;;;;;;;16.65;10.40;;;;;;;1.68;67.38;99956.52;1730703;83;21073;-72
2022/01/09 08:49:13;;;;;;;15.80;9.65;;;;;;;1.65;67.28;99949.88;1731009;83;21046;-70
2022/01/09 08:51:42;;;;;;;15.28;10.05;;;;;;;1.73;67.23;99954.06;1730859;83;21050;-70
2022/01/09 08:54:15;;;;;;;16.05;10.80;;;;;;;1.73;66.98;99955.39;1700298;83;20971;-70
2022/01/09 08:56:52;;;;;;;16.27;10.10;;;;;;;1.62;66.91;99947.67;1699599;82;40505;-70
2022/01/09 08:59:26;;;;;;;16.75;10.65;;;;;;;1.59;67.06;99947.58;1730747;82;21070;-71
2022/01/09 09:02:01;;;;;;;17.62;11.43;;;;;;;1.67;67.09;99950.45;1730762;83;21014;-70
2022/01/09 09:04:41;;;;;;;17.95;11.50;;;;;;;1.71;66.96;99949.03;1730915;83;21098;-69
2022/01/09 09:07:24;;;;;;;16.50;10.55;;;;;;;1.74;66.91;99947.77;1705191;83;21577;-71
2022/01/09 09:10:03;;;;;;;17.00;10.87;;;;;;;1.79;66.85;99949.27;1701168;83;22259;-70
2022/01/09 09:12:32;;;;;;;16.90;10.32;;;;;;;1.86;66.79;99940.80;1702239;83;21030;-71
2022/01/09 09:15:07;;;;;;;20.88;12.15;;;;;;;1.87;66.61;99933.99;1730648;83;21018;-70
2022/01/09 09:17:43;;;;;;;16.52;10.78;;;;;;;1.83;66.53;99927.55;1731032;83;21038;-70
2022/01/09 09:20:19;;;;;;;19.52;12.03;;;;;;;1.86;66.54;99919.73;1730743;83;21105;-71
2022/01/09 09:23:04;;;;;;;18.45;11.55;;;;;;;1.87;66.46;99912.92;1731001;82;21091;-71
2022/01/09 09:25:33;;;;;;;17.62;11.05;;;;;;;1.90;66.46;99908.27;1730824;82;20962;-72
2022/01/09 09:28:04;;;;;;;19.00;12.05;;;;;;;1.92;66.38;99910.98;1700173;83;21077;-73
2022/01/09 09:30:38;;;;;;;19.45;11.60;;;;;;;1.93;66.28;99907.31;1730089;82;21132;-71
2022/01/09 09:33:10;;;;;;;20.17;11.85;;;;;;;1.94;66.32;99899.73;1730582;83;21525;-69
2022/01/09 09:35:43;;;;;;;19.27;11.95;;;;;;;1.93;66.16;99891.52;1730854;82;21105;-70
2022/01/09 09:38:11;;;;;;;17.17;11.18;;;;;;;1.87;66.23;99891.86;1729787;81;21073;-70
2022/01/09 09:40:41;;;;;;;20.23;12.93;;;;;;;1.90;66.20;99895.09;1730604;82;21059;-70
2022/01/09 09:43:10;;;;;;;16.50;10.90;;;;;;;1.93;66.21;99894.15;1730709;83;21022;-70
2022/01/09 09:45:38;;;;;;;21.70;12.10;;;;;;;2.01;66.16;99884.67;1730485;83;21006;-70
2022/01/09 09:48:05;;;;;;;18.30;11.28;;;;;;;2.01;66.06;99882.03;1730784;83;21151;-70
2022/01/09 09:50:34;;;;;;;21.05;12.63;;;;;;;1.95;66.00;99871.56;1730751;82;21471;-70
2022/01/09 09:53:06;;;;;;;17.70;11.35;;;;;;;1.83;66.02;99877.52;1730836;82;21466;-70
2022/01/09 09:55:37;;;;;;;17.30;11.38;;;;;;;1.77;66.13;99856.52;1730952;82;21022;-69
2022/01/09 09:58:13;;;;;;;20.45;12.78;;;;;;;1.72;66.39;99854.54;1730947;83;21014;-71
2022/01/09 10:01:24;;;;;;;18.75;12.93;;;;;;;1.67;66.68;99840.41;1728724;81;21061;-70
2022/01/09 10:04:00;;;;;;;19.15;11.60;;;;;;;1.75;66.98;99846.73;1729999;82;21035;-70
2022/01/09 10:06:39;;;;;;;19.05;12.35;;;;;;;1.87;67.08;99843.14;1730498;83;21507;-70
2022/01/09 10:09:11;;;;;;;23.02;14.20;;;;;;;1.90;67.13;99843.73;1730312;83;21065;-70
2022/01/09 10:11:52;;;;;;;22.22;13.83;;;;;;;1.95;67.20;99855.24;1730488;82;21089;-70
2022/01/09 10:14:27;;;;;;;19.98;12.55;;;;;;;2.05;67.24;99856.06;1730778;82;21672;-69
2022/01/09 10:17:16;;;;;;;23.65;14.73;;;;;;;2.17;67.13;99848.22;1729254;83;21553;-70
2022/01/09 10:19:56;;;;;;;23.12;14.53;;;;;;;2.20;66.98;99855.69;1725839;82;21030;-70
2022/01/09 10:22:40;;;;;;;21.25;13.10;;;;;;;2.17;66.82;99841.64;1730479;81;21533;-70
2022/01/09 10:25:30;;;;;;;21.27;13.95;;;;;;;2.19;66.86;99834.33;1730314;83;21140;-70
2022/01/09 10:28:02;;;;;;;23.15;14.70;;;;;;;2.17;66.81;99831.09;1730796;82;21159;-70
2022/01/09 10:30:48;;;;;;;23.35;14.75;;;;;;;2.13;66.82;99833.89;1730859;82;21158;-70
2022/01/09 10:33:17;;;;;;;26.30;15.45;;;;;;;2.10;66.79;99831.97;1730931;82;21086;-70
2022/01/09 10:35:46;;;;;;;22.25;14.45;;;;;;;2.17;66.93;99821.88;1730811;82;20963;-70
2022/01/09 10:38:23;;;;;;;20.08;13.60;;;;;;;2.21;66.89;99819.92;1731259;82;21834;-71
2022/01/09 10:40:57;;;;;;;22.37;13.13;;;;;;;2.19;66.90;99810.63;1731011;82;21793;-70
2022/01/09 10:43:35;;;;;;;24.20;14.65;;;;;;;2.16;67.08;99816.33;1730967;82;21077;-70
2022/01/09 10:46:02;;;;;;;23.38;14.70;;;;;;;2.20;67.17;99811.70;1702375;83;21070;-70
2022/01/09 10:48:39;;;;;;;23.25;15.25;;;;;;;2.13;67.16;99811.49;1730547;82;21071;-70
2022/01/09 10:51:08;;;;;;;26.52;15.25;;;;;;;2.15;67.32;99801.55;1730860;83;21629;-71
2022/01/09 10:53:43;;;;;;;23.55;14.45;;;;;;;2.24;67.35;99801.04;1730908;82;21104;-70
2022/01/09 10:56:20;;;;;;;22.35;14.38;;;;;;;2.32;67.26;99799.41;1730971;82;21018;-69
2022/01/09 10:58:54;;;;;;;20.85;13.40;;;;;;;2.34;67.18;99790.78;1730769;82;21545;-71
2022/01/09 11:01:33;;;;;;;22.58;14.87;;;;;;;2.35;67.15;99783.16;1701725;82;21094;-69
2022/01/09 11:04:06;;;;;;;22.07;14.05;;;;;;;2.35;67.12;99773.13;1701723;84;21145;-69
2022/01/09 11:06:36;;;;;;;21.42;14.50;;;;;;;2.37;67.07;99776.84;1729522;82;21152;-70
2022/01/09 11:09:05;;;;;;;23.15;14.35;;;;;;;2.28;67.04;99775.05;1731319;82;21093;-70
2022/01/09 11:11:37;;;;;;;22.60;14.28;;;;;;;2.26;67.13;99775.77;1730911;82;21058;-70
2022/01/09 11:14:04;;;;;;;22.45;14.15;;;;;;;2.21;67.17;99775.65;1730631;82;21720;-70
2022/01/09 11:16:33;;;;;;;23.10;14.90;;;;;;;2.16;67.26;99777.61;1731024;82;21505;-70
2022/01/09 11:19:07;;;;;;;23.10;14.78;;;;;;;2.16;67.39;99782.88;1731256;82;21062;-70
2022/01/09 11:21:35;;;;;;;25.75;15.95;;;;;;;2.20;67.42;99778.77;1730985;82;21495;-70
2022/01/09 11:24:27;;;;;;;24.72;15.90;;;;;;;2.24;67.35;99773.89;1730954;82;21074;-70
2022/01/09 11:27:27;;;;;;;23.92;15.23;;;;;;;2.22;67.28;99778.56;1731196;82;23586;-70
2022/01/09 11:30:11;;;;;;;23.60;14.87;;;;;;;2.18;67.29;99773.45;1731212;82;21525;-70
2022/01/09 11:33:11;;;;;;;25.48;16.32;;;;;;;2.07;67.41;99778.92;1730926;83;21781;-70